Time;durP1;ratioP1;P1;durP2;ratioP2;P2;SDS_P1;SDS_P2;PMS_P1;PMS_P2;Temp;Humidity;BMP_temperature;BMP_pressure;BME280_temperature;BME280_humidity;BME280_pressure;Samples;Min_cycle;Max_cycle;Signal;HPM_P1;HPM_P2
2022/02/09 00:03:39;;;;;;;;;30.00;28.75;11.60;38.70;;;;;;4956731;28;8795;-69
2022/02/09 00:06:08;;;;;;;;;31.25;30.50;11.70;38.70;;;;;;4956511;28;8804;-69
2022/02/09 00:08:34;;;;;;;;;25.50;23.25;11.40;39.00;;;;;;4956610;28;8876;-69
2022/02/09 00:11:03;;;;;;;;;32.75;29.00;11.50;39.10;;;;;;4956296;28;8896;-69
2022/02/09 00:19:17;;;;;;;;;29.25;27.00;12.00;38.50;;;;;;4935185;29;8898;-68
2022/02/09 00:24:39;;;;;;;;;31.75;30.75;12.20;37.80;;;;;;4935133;29;8882;-69
2022/02/09 00:38:17;;;;;;;;;30.75;29.75;12.20;37.60;;;;;;4934984;29;9410;-68
2022/02/09 01:57:06;;;;;;;;;34.25;32.00;13.10;36.30;;;;;;4958722;28;8780;-69
2022/02/09 01:59:32;;;;;;;;;34.25;29.75;13.10;36.00;;;;;;4958549;28;8776;-69
2022/02/09 02:01:58;;;;;;;;;41.50;36.75;13.30;35.90;;;;;;4958531;28;8796;-69
2022/02/09 02:04:25;;;;;;;;;44.25;41.00;13.40;35.70;;;;;;4958787;28;8780;-69
2022/02/09 02:06:55;;;;;;;;;56.75;43.75;13.60;35.50;;;;;;4958489;28;8792;-69
2022/02/09 02:09:23;;;;;;;;;54.50;43.00;13.70;35.20;;;;;;4958688;28;8772;-67
2022/02/09 02:15:18;;;;;;;;;46.50;39.50;13.70;35.80;;;;;;4958368;28;8784;-68
2022/02/09 02:19:39;;;;;;;;;36.00;35.00;13.70;34.70;;;;;;4958528;28;8780;-67
2022/02/09 02:30:12;;;;;;;;;51.75;44.00;13.70;34.90;;;;;;4958308;28;8800;-67
2022/02/09 02:32:59;;;;;;;;;50.25;43.00;13.60;35.50;;;;;;4957820;28;8820;-67
2022/02/09 03:17:07;;;;;;;;;48.00;40.75;13.40;36.20;;;;;;4957292;28;8772;-68
2022/02/09 03:19:55;;;;;;;;;52.75;42.25;13.40;36.20;;;;;;4957188;28;8784;-68
2022/02/09 03:22:38;;;;;;;;;25.75;21.25;13.50;36.20;;;;;;4957115;28;8910;-68
2022/02/09 03:44:48;;;;;;;;;44.75;38.75;13.10;38.00;;;;;;4897766;29;8789;-68
2022/02/09 03:54:53;;;;;;;;;42.00;37.75;12.60;39.30;;;;;;4897565;29;8852;-69
2022/02/09 03:59:48;;;;;;;;;36.00;35.75;12.80;39.10;;;;;;4897471;29;8829;-69
2022/02/09 04:02:14;;;;;;;;;38.00;34.75;12.80;39.20;;;;;;4897437;29;9455;-68
2022/02/09 04:04:40;;;;;;;;;41.50;37.25;12.90;39.20;;;;;;4935633;28;8784;-69
2022/02/09 04:07:07;;;;;;;;;44.75;39.25;13.00;38.90;;;;;;4956480;28;8760;-68
2022/02/09 04:09:35;;;;;;;;;30.00;30.00;13.00;38.80;;;;;;4956422;28;8781;-69
2022/02/09 04:12:14;;;;;;;;;40.25;36.25;13.10;38.90;;;;;;4956381;28;8788;-68
2022/02/09 04:14:56;;;;;;;;;40.50;34.25;12.90;38.50;;;;;;4955914;28;8811;-69
2022/02/09 04:17:36;;;;;;;;;24.75;21.75;12.80;38.90;;;;;;4956377;28;9466;-69
2022/02/09 04:20:33;;;;;;;;;35.75;30.50;12.70;38.70;;;;;;4956319;28;8788;-68
2022/02/09 04:39:19;;;;;;;;;20.25;20.00;12.10;39.80;;;;;;4956382;28;8793;-69
2022/02/09 04:52:22;;;;;;;;;23.00;21.00;12.40;39.40;;;;;;4956099;29;8757;-68
2022/02/09 05:00:42;;;;;;;;;28.50;27.25;11.60;40.30;;;;;;4903675;28;8848;-69
2022/02/09 05:03:37;;;;;;;;;25.00;25.00;11.60;40.10;;;;;;4955885;28;8812;-68
2022/02/09 05:27:53;;;;;;;;;45.75;40.50;11.80;38.30;;;;;;4959582;28;8761;-69
2022/02/09 05:30:19;;;;;;;;;48.50;40.50;11.80;38.80;;;;;;4957898;28;8851;-68
2022/02/09 05:32:47;;;;;;;;;45.00;38.00;11.80;38.80;;;;;;4953677;28;8840;-69
2022/02/09 05:35:14;;;;;;;;;45.00;38.75;11.60;38.80;;;;;;4954770;29;8855;-68
2022/02/09 05:37:40;;;;;;;;;41.00;37.50;11.80;38.70;;;;;;4947062;28;8817;-69
2022/02/09 05:40:07;;;;;;;;;43.50;40.00;11.80;38.40;;;;;;4947043;28;8799;-69
2022/02/09 05:42:33;;;;;;;;;40.50;38.00;11.90;38.10;;;;;;4947955;28;8915;-67
2022/02/09 05:45:06;;;;;;;;;41.25;38.50;11.90;38.10;;;;;;4952080;28;8796;-67
2022/02/09 05:50:15;;;;;;;;;43.00;38.00;11.60;38.70;;;;;;4950460;29;8869;-67
2022/02/09 05:52:58;;;;;;;;;45.50;39.50;11.30;39.00;;;;;;4951232;28;8788;-67
2022/02/09 05:55:37;;;;;;;;;44.00;40.00;11.30;39.30;;;;;;4958233;28;8846;-69
2022/02/09 05:58:13;;;;;;;;;43.25;39.75;11.10;39.10;;;;;;4958727;28;8797;-68
2022/02/09 06:00:47;;;;;;;;;40.00;38.00;11.40;39.80;;;;;;4958614;28;8824;-67
2022/02/09 06:03:14;;;;;;;;;41.75;38.25;11.60;38.80;;;;;;4957563;28;8823;-68
2022/02/09 06:05:40;;;;;;;;;36.00;35.25;11.60;38.60;;;;;;4958487;28;8796;-69
2022/02/09 06:08:05;;;;;;;;;38.75;35.50;11.30;38.50;;;;;;4958547;28;8791;-66
2022/02/09 06:10:33;;;;;;;;;27.75;24.50;11.40;38.90;;;;;;4958197;28;8784;-65
2022/02/09 06:13:19;;;;;;;;;33.75;32.00;11.20;38.40;;;;;;4958278;28;8769;-71
2022/02/09 06:16:11;;;;;;;;;37.00;34.50;11.10;39.40;;;;;;4958445;28;8854;-73
2022/02/09 06:21:22;;;;;;;;;33.50;31.50;10.80;39.80;;;;;;4958289;28;8768;-64
2022/02/09 06:23:48;;;;;;;;;37.25;37.00;11.00;39.80;;;;;;4958071;28;8866;-64
2022/02/09 06:26:14;;;;;;;;;48.75;40.50;11.10;40.10;;;;;;4958154;28;8831;-65
2022/02/09 06:28:40;;;;;;;;;55.75;45.75;10.80;39.70;;;;;;4958096;28;8768;-65
2022/02/09 06:31:05;;;;;;;;;54.50;45.00;11.00;40.90;;;;;;4957967;28;8808;-67
2022/02/09 06:33:31;;;;;;;;;50.50;42.50;11.00;40.00;;;;;;4957737;28;8838;-69
2022/02/09 06:36:00;;;;;;;;;53.00;43.75;11.40;39.40;;;;;;4957756;28;8911;-65
2022/02/09 06:38:27;;;;;;;;;43.75;39.50;11.40;39.20;;;;;;4957401;28;8784;-67
2022/02/09 06:40:55;;;;;;;;;43.75;37.50;11.30;38.60;;;;;;4957720;28;8807;-64
2022/02/09 06:43:21;;;;;;;;;37.50;36.00;11.30;39.10;;;;;;4957815;28;8982;-65
2022/02/09 06:45:47;;;;;;;;;48.50;41.25;11.30;39.20;;;;;;4957781;28;8780;-64
2022/02/09 06:48:15;;;;;;;;;45.75;39.50;11.60;39.30;;;;;;4957780;28;8780;-65
2022/02/09 06:50:49;;;;;;;;;40.00;37.00;11.60;39.10;;;;;;4957981;28;8802;-66
2022/02/09 06:55:54;;;;;;;;;38.00;36.25;11.70;39.20;;;;;;4957533;28;8812;-65
2022/02/09 06:58:41;;;;;;;;;43.75;38.00;11.70;39.40;;;;;;4957718;28;8890;-65
2022/02/09 07:01:07;;;;;;;;;45.00;42.00;11.70;39.30;;;;;;4957670;28;9479;-65
2022/02/09 07:03:34;;;;;;;;;46.25;40.50;11.70;39.70;;;;;;4957429;28;9426;-65
2022/02/09 07:06:00;;;;;;;;;51.00;41.00;11.80;39.00;;;;;;4957313;28;8804;-65
2022/02/09 07:08:27;;;;;;;;;41.00;38.75;11.90;38.90;;;;;;4957347;28;8795;-65
2022/02/09 07:10:53;;;;;;;;;48.25;41.75;12.10;38.50;;;;;;4957517;28;8780;-65
2022/02/09 07:13:19;;;;;;;;;46.75;38.75;12.00;38.70;;;;;;4956176;28;8796;-65
2022/02/09 07:15:50;;;;;;;;;39.75;34.25;12.00;38.50;;;;;;4957037;28;8834;-65
2022/02/09 07:18:16;;;;;;;;;42.50;39.25;12.00;38.40;;;;;;4957247;28;8795;-65
2022/02/09 07:20:58;;;;;;;;;38.75;36.00;11.90;38.40;;;;;;4957118;28;8877;-65
2022/02/09 07:28:49;;;;;;;;;38.00;36.25;12.00;38.30;;;;;;4916694;29;8829;-68
2022/02/09 07:31:15;;;;;;;;;40.75;37.00;12.00;38.00;;;;;;4916623;29;8830;-66
2022/02/09 07:33:42;;;;;;;;;42.50;35.25;12.10;37.70;;;;;;4916420;29;8827;-67
2022/02/09 07:36:10;;;;;;;;;39.00;38.00;12.00;37.60;;;;;;4916406;29;8831;-67
2022/02/09 07:38:35;;;;;;;;;45.25;37.75;12.00;37.90;;;;;;4916527;29;8788;-67
2022/02/09 07:41:02;;;;;;;;;38.25;36.00;12.10;38.30;;;;;;4916471;29;9517;-67
2022/02/09 07:49:01;;;;;;;;;41.25;38.50;11.70;39.20;;;;;;4915493;29;8784;-68
2022/02/09 07:54:01;;;;;;;;;35.25;34.75;12.00;39.00;;;;;;4916402;29;8877;-68
2022/02/09 07:56:39;;;;;;;;;46.50;38.00;12.00;38.70;;;;;;4916394;29;8933;-68
2022/02/09 07:59:08;;;;;;;;;43.75;37.00;12.10;38.80;;;;;;4916223;29;8805;-66
2022/02/09 08:01:34;;;;;;;;;45.00;38.50;12.10;39.00;;;;;;4916413;29;8831;-66
2022/02/09 08:04:00;;;;;;;;;41.75;36.25;12.30;38.80;;;;;;4930015;28;8788;-68
2022/02/09 08:06:26;;;;;;;;;39.75;37.50;12.60;38.40;;;;;;4955207;28;8812;-65
2022/02/09 08:09:02;;;;;;;;;42.00;36.50;12.70;38.10;;;;;;4956193;28;8784;-68
2022/02/09 08:11:47;;;;;;;;;45.00;39.50;12.70;38.10;;;;;;4956159;28;8879;-67
2022/02/09 08:33:07;;;;;;;;;43.25;36.75;13.40;37.60;;;;;;4956188;29;8824;-65
2022/02/09 08:35:34;;;;;;;;;31.75;28.50;13.60;37.30;;;;;;4956078;28;8835;-64
2022/02/09 08:38:01;;;;;;;;;32.50;29.75;13.70;37.10;;;;;;4956128;28;8760;-64
2022/02/09 08:40:28;;;;;;;;;28.75;27.25;14.00;36.60;;;;;;4956029;28;8784;-65
2022/02/09 08:42:55;;;;;;;;;32.25;29.50;14.10;36.00;;;;;;4956262;28;8884;-64
2022/02/09 08:45:21;;;;;;;;;28.75;26.25;14.20;36.10;;;;;;4956035;28;8791;-64
2022/02/09 08:47:47;;;;;;;;;27.00;27.00;14.10;36.00;;;;;;4955978;29;8794;-65
2022/02/09 08:50:15;;;;;;;;;24.25;23.25;14.00;36.30;;;;;;4955915;29;8788;-64
2022/02/09 08:52:41;;;;;;;;;18.00;16.67;14.00;36.00;;;;;;4956017;28;9503;-64
2022/02/09 08:55:08;;;;;;;;;26.33;24.67;14.10;35.90;;;;;;4956077;28;8822;-65
2022/02/09 08:57:35;;;;;;;;;24.50;22.25;14.50;35.60;;;;;;4956247;28;8803;-64
2022/02/09 09:00:12;;;;;;;;;20.25;20.25;14.60;35.50;;;;;;4957044;28;8835;-64
2022/02/09 09:02:42;;;;;;;;;24.75;21.75;14.50;35.50;;;;;;4959634;28;8800;-64
2022/02/09 09:05:15;;;;;;;;;28.50;23.50;14.70;35.40;;;;;;4959611;28;8803;-65
2022/02/09 09:07:47;;;;;;;;;24.50;22.25;14.80;35.30;;;;;;4959838;28;8784;-65
2022/02/09 10:36:02;;;;;;;;;25.00;24.33;20.20;30.00;;;;;;4957886;28;8811;-65
2022/02/09 10:38:24;;;;;;;;;19.67;19.67;20.50;30.00;;;;;;4949937;28;8827;-65
2022/02/09 10:40:53;;;;;;;;;17.00;15.67;20.70;29.20;;;;;;4957014;28;8792;-64
2022/02/09 10:43:32;;;;;;;;;16.67;16.67;20.90;29.20;;;;;;4956773;28;8807;-66
2022/02/09 10:46:21;;;;;;;;;10.00;9.67;22.00;28.50;;;;;;4956680;28;9470;-64
2022/02/09 10:48:57;;;;;;;;;17.33;16.67;23.30;26.90;;;;;;4955191;28;8768;-65
2022/02/09 10:51:52;;;;;;;;;18.33;18.00;23.40;26.60;;;;;;4955178;28;8834;-64
2022/02/09 10:54:25;;;;;;;;;22.33;20.67;23.50;26.70;;;;;;4953990;28;8792;-65
2022/02/09 10:56:55;;;;;;;;;16.33;16.33;23.10;26.90;;;;;;4937840;29;8841;-66
2022/02/09 10:59:22;;;;;;;;;15.67;15.33;24.70;26.10;;;;;;4938339;29;8790;-65
2022/02/09 11:01:50;;;;;;;;;12.50;12.00;26.90;24.70;;;;;;4938107;29;11646;-66
2022/02/09 11:04:16;;;;;;;;;15.00;14.25;28.70;23.10;;;;;;4938026;29;12098;-65
2022/02/09 11:06:44;;;;;;;;;10.25;10.25;28.70;22.00;;;;;;4938303;29;11561;-65
2022/02/09 11:09:15;;;;;;;;;9.50;9.50;28.80;21.90;;;;;;4937962;29;11657;-65
2022/02/09 11:11:42;;;;;;;;;13.50;13.50;29.30;22.00;;;;;;4937530;29;11536;-65
2022/02/09 11:14:14;;;;;;;;;16.25;16.25;28.20;22.00;;;;;;4937954;29;11551;-67
2022/02/09 11:16:52;;;;;;;;;6.00;6.00;26.60;23.30;;;;;;4938142;29;11596;-66
2022/02/09 11:19:19;;;;;;;;;15.50;15.50;26.40;24.10;;;;;;4937847;29;11536;-65
2022/02/09 11:21:50;;;;;;;;;9.75;9.75;26.30;23.90;;;;;;4937781;29;12246;-65
2022/02/09 11:24:23;;;;;;;;;12.50;12.50;26.10;24.20;;;;;;4937638;29;12235;-65
2022/02/09 11:27:14;;;;;;;;;7.75;7.75;26.30;23.90;;;;;;4937113;29;11683;-64
2022/02/09 11:30:00;;;;;;;;;16.75;16.75;27.80;22.90;;;;;;4937653;29;11509;-65
2022/02/09 11:32:38;;;;;;;;;14.25;14.25;29.30;22.50;;;;;;4937296;29;11734;-65
2022/02/09 11:38:30;;;;;;;;;14.25;14.25;34.80;19.50;;;;;;4937486;29;11555;-68
2022/02/09 11:43:28;;;;;;;;;16.00;16.00;34.80;18.40;;;;;;4937389;29;12243;-66
2022/02/09 12:00:28;;;;;;;;;14.50;14.50;41.30;14.60;;;;;;4940062;28;11532;-71
2022/02/09 12:11:10;;;;;;;;;13.00;13.00;40.80;15.20;;;;;;4954782;28;11519;-72
2022/02/09 12:19:01;;;;;;;;;16.00;16.00;43.50;14.10;;;;;;4955666;28;11649;-71
2022/02/09 12:21:49;;;;;;;;;13.50;13.50;42.80;13.50;;;;;;4955815;28;11581;-68
2022/02/09 12:24:20;;;;;;;;;12.00;12.00;42.90;13.40;;;;;;4954955;28;11578;-67
2022/02/09 12:27:09;;;;;;;;;14.75;14.75;41.50;13.90;;;;;;4955968;28;11548;-68
2022/02/09 12:29:37;;;;;;;;;17.50;17.50;41.10;14.50;;;;;;4955952;29;12207;-69
2022/02/09 12:32:23;;;;;;;;;17.00;17.00;42.00;14.00;;;;;;4955349;29;11583;-69
2022/02/09 12:34:59;;;;;;;;;16.25;16.25;43.60;13.60;;;;;;4956556;28;12284;-68
2022/02/09 12:37:30;;;;;;;;;17.00;17.00;44.20;13.20;;;;;;4960205;28;11837;-69
2022/02/09 12:40:13;;;;;;;;;15.00;15.00;42.10;13.10;;;;;;4959693;28;11573;-67
2022/02/09 12:42:42;;;;;;;;;18.50;18.50;42.80;13.50;;;;;;4959797;28;11565;-67
2022/02/09 12:45:15;;;;;;;;;17.50;17.50;43.00;13.30;;;;;;4959759;28;11682;-68
2022/02/09 12:47:50;;;;;;;;;22.25;22.25;43.60;13.40;;;;;;4960125;28;11568;-67
2022/02/09 12:50:18;;;;;;;;;16.50;16.50;44.10;13.00;;;;;;4959564;28;11590;-67
2022/02/09 12:52:46;;;;;;;;;13.00;13.00;44.40;12.90;;;;;;4959786;28;11573;-69
2022/02/09 12:55:32;;;;;;;;;17.25;17.25;44.70;12.90;;;;;;4959677;28;11558;-68
2022/02/09 12:58:08;;;;;;;;;14.75;14.75;44.50;12.70;;;;;;4959640;28;11663;-69
2022/02/09 13:00:40;;;;;;;;;15.75;15.75;43.60;12.40;;;;;;4959685;28;11674;-68
2022/02/09 13:03:09;;;;;;;;;13.75;13.75;44.20;12.90;;;;;;4958591;28;11580;-68
2022/02/09 13:06:00;;;;;;;;;11.75;11.75;44.30;12.70;;;;;;4959553;28;11548;-69
2022/02/09 13:08:30;;;;;;;;;14.50;14.50;43.60;12.60;;;;;;4959669;28;11549;-68
2022/02/09 13:11:05;;;;;;;;;9.50;9.50;43.40;12.60;;;;;;4959381;28;11539;-68
2022/02/09 13:13:35;;;;;;;;;15.25;15.25;42.90;12.90;;;;;;4959674;28;11544;-68
2022/02/09 14:11:39;;;;;;;;;11.00;11.00;37.60;14.10;;;;;;4958366;28;11578;-67
2022/02/09 14:17:08;;;;;;;;;8.00;8.00;36.70;15.00;;;;;;4957988;28;11550;-68
2022/02/09 14:57:09;;;;;;;;;15.00;15.00;24.10;25.50;;;;;;4957680;28;11564;-68
2022/02/09 15:03:00;;;;;;;;;11.67;11.67;23.20;27.00;;;;;;4957450;28;8780;-67
2022/02/09 15:10:09;;;;;;;;;10.00;10.00;23.30;27.00;;;;;;4957320;28;8772;-69
2022/02/09 15:15:29;;;;;;;;;18.00;18.00;23.40;27.10;;;;;;4957158;28;8795;-72
2022/02/09 15:23:12;;;;;;;;;21.00;20.67;22.40;28.00;;;;;;4957153;28;8776;-69
2022/02/09 15:25:38;;;;;;;;;20.33;20.33;22.00;28.30;;;;;;4956988;28;8811;-68
2022/02/09 15:28:06;;;;;;;;;30.33;25.00;21.70;28.80;;;;;;4957115;28;8788;-69
2022/02/09 15:30:43;;;;;;;;;37.67;32.67;21.50;29.70;;;;;;4956681;28;8938;-68
2022/02/09 15:33:08;;;;;;;;;40.33;36.33;21.40;29.60;;;;;;4956837;28;8796;-68
2022/02/09 15:35:39;;;;;;;;;39.33;35.00;21.30;29.90;;;;;;4956704;28;8816;-69
2022/02/09 15:40:34;;;;;;;;;34.00;30.00;21.00;30.40;;;;;;4957127;28;8854;-66
2022/02/09 15:56:57;;;;;;;;;68.50;53.50;19.90;32.60;;;;;;4943785;28;8799;-65
2022/02/09 16:23:57;;;;;;;;;111.00;105.25;19.00;35.40;;;;;;4946439;28;8765;-68
2022/02/09 16:45:17;;;;;;;;;211.75;196.00;18.40;37.10;;;;;;4940686;29;8804;-69
2022/02/09 16:47:56;;;;;;;;;262.25;244.25;18.30;37.30;;;;;;4944819;29;8911;-72
2022/02/09 16:50:28;;;;;;;;;240.75;225.00;18.30;37.30;;;;;;4954438;29;8922;-69
2022/02/09 16:53:09;;;;;;;;;260.25;240.50;18.30;37.70;;;;;;4940677;28;8818;-72
2022/02/09 16:55:56;;;;;;;;;329.00;297.25;18.30;37.90;;;;;;4936916;29;8963;-67
2022/02/09 17:19:41;;;;;;;;;431.80;402.00;17.10;39.80;;;;;;4953125;29;8879;-65
2022/02/09 17:22:08;;;;;;;;;436.50;393.75;17.20;39.50;;;;;;4955272;28;8916;-66
2022/02/09 17:24:35;;;;;;;;;410.75;372.50;17.30;39.30;;;;;;4957836;28;8875;-64
2022/02/09 17:27:04;;;;;;;;;363.60;342.60;17.40;39.40;;;;;;4955622;28;8773;-65
2022/02/09 17:29:51;;;;;;;;;373.00;329.25;17.50;39.30;;;;;;4957824;28;8772;-64
2022/02/09 17:32:31;;;;;;;;;302.00;277.50;17.50;39.40;;;;;;4957355;28;8827;-64
2022/02/09 17:37:47;;;;;;;;;276.75;256.00;17.40;39.10;;;;;;4959044;28;8813;-65
2022/02/09 17:55:21;;;;;;;;;312.25;274.00;17.00;40.00;;;;;;4958655;28;8769;-64
2022/02/09 17:56:54;;;;;;;;;315.75;291.25;17.10;39.80;;;;;;4955927;28;8930;-64
2022/02/09 17:59:24;;;;;;;;;296.75;270.75;17.10;39.80;;;;;;4954862;28;8797;-65
2022/02/09 18:01:50;;;;;;;;;303.00;277.75;17.10;40.00;;;;;;4958076;28;8805;-65
2022/02/09 18:04:18;;;;;;;;;330.75;316.75;17.10;41.00;;;;;;4958347;28;8816;-66
2022/02/09 18:06:53;;;;;;;;;341.50;317.50;17.10;40.00;;;;;;4958593;28;8808;-64
2022/02/09 18:09:27;;;;;;;;;330.50;303.00;17.10;39.80;;;;;;4951823;28;10284;-65
2022/02/09 18:43:28;;;;;;;;;177.00;160.75;16.50;41.80;;;;;;4957557;28;8800;-64
2022/02/09 18:46:06;;;;;;;;;176.00;159.00;16.50;42.00;;;;;;4957691;28;8796;-65
2022/02/09 19:02:19;;;;;;;;;143.00;132.75;16.30;42.50;;;;;;4953188;28;8812;-64
2022/02/09 19:04:48;;;;;;;;;182.25;166.75;16.10;43.10;;;;;;4952153;28;9571;-64
2022/02/09 19:20:55;;;;;;;;;222.75;198.00;15.50;44.50;;;;;;4938286;29;8878;-65
2022/02/09 19:26:23;;;;;;;;;174.00;159.00;15.50;44.70;;;;;;4937946;29;8758;-63
2022/02/09 19:29:35;;;;;;;;;177.00;158.50;15.50;44.40;;;;;;4937749;29;8783;-64
2022/02/09 19:32:11;;;;;;;;;168.00;157.50;15.60;44.30;;;;;;4937362;29;8885;-65
2022/02/09 19:48:19;;;;;;;;;131.25;118.75;15.00;45.50;;;;;;4937626;29;8771;-64
2022/02/09 19:51:14;;;;;;;;;136.75;126.50;15.10;45.40;;;;;;4937401;29;8807;-64
2022/02/09 19:54:06;;;;;;;;;151.75;140.25;15.10;45.40;;;;;;4937737;29;8783;-65
2022/02/09 19:56:31;;;;;;;;;144.00;134.25;14.80;45.80;;;;;;4937235;29;9016;-65
2022/02/09 19:59:01;;;;;;;;;159.00;149.25;14.60;46.60;;;;;;4937399;29;8893;-65
2022/02/09 20:01:34;;;;;;;;;140.00;135.50;14.80;46.30;;;;;;4937647;29;9516;-66
2022/02/09 20:04:01;;;;;;;;;146.50;132.75;14.90;46.00;;;;;;4937564;29;8829;-66
2022/02/09 20:06:26;;;;;;;;;179.25;156.25;14.70;46.10;;;;;;4937227;29;8794;-66
2022/02/09 20:08:52;;;;;;;;;169.00;154.75;14.70;46.40;;;;;;4937137;29;8814;-66
2022/02/09 20:11:19;;;;;;;;;175.00;160.25;14.80;46.20;;;;;;4937152;29;8785;-66
2022/02/09 20:13:46;;;;;;;;;156.50;147.75;14.80;45.90;;;;;;4937102;29;8893;-66
2022/02/09 20:16:12;;;;;;;;;139.50;126.00;14.80;46.20;;;;;;4937238;29;8831;-66
2022/02/09 20:18:40;;;;;;;;;136.50;123.50;14.80;46.30;;;;;;4936913;29;9662;-66
2022/02/09 20:21:06;;;;;;;;;105.25;92.50;14.60;46.20;;;;;;4937127;29;8889;-66
2022/02/09 20:23:34;;;;;;;;;100.25;87.50;14.60;46.50;;;;;;4937110;29;8901;-66
2022/02/09 20:26:04;;;;;;;;;96.00;88.00;14.50;47.50;;;;;;4937032;29;8821;-65
2022/02/09 20:28:30;;;;;;;;;105.25;99.75;14.50;46.90;;;;;;4936843;29;8770;-66
2022/02/09 20:31:01;;;;;;;;;114.25;108.75;14.40;47.10;;;;;;4937167;29;8937;-66
2022/02/09 20:33:34;;;;;;;;;115.50;107.25;14.50;46.90;;;;;;4936831;29;8829;-66
2022/02/09 20:36:02;;;;;;;;;114.50;101.50;14.50;46.80;;;;;;4939973;29;8845;-65
2022/02/09 20:38:29;;;;;;;;;94.75;89.25;14.20;47.50;;;;;;4952811;28;8792;-65
2022/02/09 20:40:59;;;;;;;;;96.00;90.50;14.30;47.20;;;;;;4953353;29;8788;-65
2022/02/09 20:43:26;;;;;;;;;98.50;91.75;14.20;47.40;;;;;;4954809;28;8781;-65
2022/02/09 20:45:56;;;;;;;;;127.00;117.50;14.40;47.00;;;;;;4952417;29;8908;-65
2022/02/09 20:48:26;;;;;;;;;194.50;179.00;14.40;46.50;;;;;;4953049;28;8948;-66
2022/02/09 20:50:57;;;;;;;;;179.75;170.00;14.50;46.50;;;;;;4955034;28;8780;-65
2022/02/09 20:53:24;;;;;;;;;136.00;126.25;14.40;46.60;;;;;;4947355;28;8862;-66
2022/02/09 20:55:51;;;;;;;;;141.00;123.75;14.20;47.20;;;;;;4952561;28;8816;-65
2022/02/09 20:58:19;;;;;;;;;127.75;116.75;14.10;47.40;;;;;;4958543;28;8777;-65
2022/02/09 21:00:55;;;;;;;;;103.25;100.00;14.20;47.40;;;;;;4958734;28;8824;-65
2022/02/09 21:03:44;;;;;;;;;122.50;112.75;14.20;47.30;;;;;;4956393;28;8772;-66
2022/02/09 21:08:58;;;;;;;;;97.00;87.00;13.60;49.30;;;;;;4958282;28;9411;-64
2022/02/09 21:14:13;;;;;;;;;97.50;89.75;13.40;49.70;;;;;;4957392;28;8757;-63
2022/02/09 21:54:19;;;;;;;;;91.50;82.00;14.00;46.90;;;;;;4950401;28;8792;-63
2022/02/09 21:56:52;;;;;;;;;90.00;74.50;14.00;46.90;;;;;;4958823;28;8954;-63
2022/02/09 22:26:28;;;;;;;;;102.00;93.75;13.80;46.80;;;;;;4952062;28;8801;-64
2022/02/09 22:28:51;;;;;;;;;102.25;95.25;13.90;46.70;;;;;;4957858;28;8796;-64
2022/02/09 22:34:45;;;;;;;;;95.25;88.00;14.00;46.40;;;;;;4958180;28;8783;-67
2022/02/09 22:55:39;;;;;;;;;125.25;118.00;14.00;45.90;;;;;;4938468;29;8793;-66
2022/02/09 22:58:06;;;;;;;;;188.00;175.00;14.00;45.80;;;;;;4938719;29;9673;-66
2022/02/09 23:00:50;;;;;;;;;186.75;172.00;13.90;45.80;;;;;;4938667;29;8809;-67
2022/02/09 23:13:47;;;;;;;;;169.50;158.75;13.70;46.00;;;;;;4938198;29;8757;-66
2022/02/09 23:16:27;;;;;;;;;152.25;139.00;13.70;45.90;;;;;;4938259;29;8825;-67
